Wetterstation Vordersexau
Wetterdaten: Woche 19.05.14 - 25.05.14 (KW21)
Datum Zeit Temp. A. Feuchte A. Luftdruck Regen Wind Richtung Taupunkt Windchill Windben
19.05.2014 00:00 11,3 C 81 % 980,4 hPa 0,0 l/m 0,0 km/h O-NO 8,2 C 11,3 C 0,0 km/h
19.05.2014 01:00 11,1 C 82 % 980,1 hPa 0,0 l/m 5,0 km/h SO 8,1 C 11,1 C 5,0 km/h
19.05.2014 02:00 10,3 C 82 % 980,2 hPa 0,0 l/m 0,0 km/h O-NO 7,4 C 10,3 C 0,0 km/h
19.05.2014 03:00 9,0 C 84 % 980,3 hPa 0,0 l/m 0,0 km/h O-NO 6,4 C 9,0 C 0,0 km/h
19.05.2014 04:00 8,6 C 85 % 980,3 hPa 0,0 l/m 0,0 km/h SO 6,2 C 8,6 C 0,0 km/h
19.05.2014 05:00 8,9 C 85 % 980,3 hPa 0,0 l/m 0,0 km/h NO 6,5 C 8,9 C 0,0 km/h
19.05.2014 06:00 9,1 C 85 % 980,5 hPa 0,0 l/m 0,0 km/h SO 6,7 C 9,1 C 0,0 km/h
19.05.2014 07:00 11,5 C 85 % 980,5 hPa 0,0 l/m 0,0 km/h SO 9,1 C 11,5 C 0,0 km/h
19.05.2014 08:00 14,3 C 79 % 980,6 hPa 0,0 l/m 0,0 km/h S-SO 10,7 C 14,3 C 0,0 km/h
19.05.2014 09:00 22,1 C 63 % 980,4 hPa 0,0 l/m 0,0 km/h SW 14,7 C 22,1 C 0,0 km/h
19.05.2014 10:00 22,1 C 54 % 980,6 hPa 0,0 l/m 10,4 km/h W 12,3 C 20,9 C 5,8 km/h
19.05.2014 11:00 23,7 C 51 % 980,5 hPa 0,0 l/m 1,9 km/h S 13,0 C 23,7 C 1,1 km/h
19.05.2014 12:00 27,9 C 44 % 979,9 hPa 0,0 l/m 0,6 km/h S-SW 14,5 C 27,9 C 0,4 km/h
19.05.2014 13:00 28,6 C 40 % 979,3 hPa 0,0 l/m 5,2 km/h W 13,7 C 28,6 C 2,9 km/h
19.05.2014 14:00 27,9 C 41 % 978,9 hPa 0,0 l/m 2,6 km/h S 13,4 C 27,9 C 1,4 km/h
19.05.2014 15:00 31,3 C 32 % 978,3 hPa 0,0 l/m 0,0 km/h N-NO 12,6 C 31,3 C 0,0 km/h
19.05.2014 16:00 34,7 C 26 % 977,9 hPa 0,0 l/m 3,9 km/h W-SW 12,3 C 34,7 C 2,2 km/h
19.05.2014 17:00 34,1 C 27 % 978,0 hPa 0,0 l/m 8,4 km/h N-NO 12,4 C 34,1 C 4,7 km/h
19.05.2014 18:00 32,8 C 27 % 978,1 hPa 0,0 l/m 0,0 km/h N 11,3 C 32,8 C 0,0 km/h
19.05.2014 19:00 29,2 C 30 % 978,1 hPa 0,0 l/m 11,7 km/h SO 9,8 C 28,6 C 6,5 km/h
19.05.2014 20:00 21,2 C 49 % 978,5 hPa 0,0 l/m 0,0 km/h SO 10,1 C 21,2 C 0,0 km/h
19.05.2014 21:00 17,1 C 63 % 978,9 hPa 0,0 l/m 0,0 km/h SO 10,0 C 17,1 C 0,0 km/h
19.05.2014 22:00 14,9 C 68 % 979,6 hPa 0,0 l/m 0,0 km/h NO 9,0 C 14,9 C 0,0 km/h
19.05.2014 23:00 14,2 C 73 % 979,8 hPa 0,0 l/m 0,0 km/h SO 9,4 C 14,2 C 0,0 km/h
20.05.2014 00:00 13,8 C 71 % 980,0 hPa 0,0 l/m 0,0 km/h SO 8,6 C 13,8 C 0,0 km/h
20.05.2014 01:00 13,2 C 70 % 980,5 hPa 0,0 l/m 0,0 km/h O 7,9 C 13,2 C 0,0 km/h
20.05.2014 02:00 11,3 C 78 % 980,8 hPa 0,0 l/m 0,0 km/h O-NO 7,6 C 11,3 C 0,0 km/h
20.05.2014 03:00 12,7 C 75 % 981,0 hPa 0,0 l/m 0,0 km/h O-NO 8,4 C 12,7 C 0,0 km/h
20.05.2014 04:00 10,9 C 78 % 981,3 hPa 0,0 l/m 0,0 km/h O-SO 7,2 C 10,9 C 0,0 km/h
20.05.2014 05:00 10,8 C 77 % 981,8 hPa 0,0 l/m 0,0 km/h SO 6,9 C 10,8 C 0,0 km/h
20.05.2014 06:00 11,6 C 77 % 982,2 hPa 0,0 l/m 0,0 km/h O-SO 7,7 C 11,6 C 0,0 km/h
20.05.2014 07:00 12,8 C 76 % 982,6 hPa 0,0 l/m 0,0 km/h O-SO 8,7 C 12,8 C 0,0 km/h
20.05.2014 08:00 15,6 C 72 % 983,1 hPa 0,0 l/m 0,0 km/h W 10,6 C 15,6 C 0,0 km/h
20.05.2014 09:00 23,2 C 52 % 983,6 hPa 0,0 l/m 0,0 km/h W 12,8 C 23,2 C 0,0 km/h
20.05.2014 10:00 27,4 C 42 % 983,6 hPa 0,0 l/m 0,6 km/h NW 13,3 C 27,4 C 0,4 km/h
20.05.2014 11:00 28,2 C 38 % 983,7 hPa 0,0 l/m 1,3 km/h W-NW 12,5 C 28,2 C 0,7 km/h
20.05.2014 12:00 27,8 C 40 % 983,4 hPa 0,0 l/m 0,0 km/h W 12,9 C 27,8 C 0,0 km/h
20.05.2014 13:00 27,6 C 41 % 983,2 hPa 0,0 l/m 0,0 km/h S-SO 13,1 C 27,6 C 0,0 km/h
20.05.2014 14:00 29,8 C 38 % 982,8 hPa 0,0 l/m 0,0 km/h W 13,9 C 29,8 C 0,0 km/h
20.05.2014 15:00 31,4 C 37 % 982,5 hPa 0,0 l/m 0,0 km/h W 14,9 C 31,4 C 0,0 km/h
20.05.2014 16:00 33,3 C 34 % 982,6 hPa 0,0 l/m 0,0 km/h W 15,3 C 33,3 C 0,0 km/h
20.05.2014 17:00 33,1 C 33 % 982,3 hPa 0,0 l/m 0,0 km/h W 14,6 C 33,1 C 0,0 km/h
20.05.2014 18:00 31,2 C 33 % 982,3 hPa 0,0 l/m 0,0 km/h NW 13,0 C 31,2 C 0,0 km/h
20.05.2014 19:00 27,3 C 42 % 982,2 hPa 0,0 l/m 0,0 km/h O 13,2 C 27,3 C 0,0 km/h
20.05.2014 20:00 21,5 C 57 % 982,3 hPa 0,0 l/m 0,0 km/h O-SO 12,6 C 21,5 C 0,0 km/h
20.05.2014 21:00 18,1 C 64 % 982,6 hPa 0,0 l/m 0,0 km/h SO 11,2 C 18,1 C 0,0 km/h
20.05.2014 22:00 16,5 C 68 % 983,1 hPa 0,0 l/m 0,0 km/h SO 10,6 C 16,5 C 0,0 km/h
20.05.2014 23:00 15,6 C 70 % 983,5 hPa 0,0 l/m 0,0 km/h O-SO 10,1 C 15,6 C 0,0 km/h
21.05.2014 00:00 14,2 C 71 % 984,1 hPa 0,0 l/m 0,0 km/h O-SO 9,0 C 14,2 C 0,0 km/h
21.05.2014 01:00 13,8 C 75 % 984,3 hPa 0,0 l/m 0,0 km/h SO 9,4 C 13,8 C 0,0 km/h
21.05.2014 02:00 12,8 C 76 % 984,4 hPa 0,0 l/m 0,0 km/h SO 8,7 C 12,8 C 0,0 km/h
21.05.2014 03:00 11,6 C 80 % 984,7 hPa 0,0 l/m 0,0 km/h SO 8,3 C 11,6 C 0,0 km/h
21.05.2014 04:00 11,4 C 81 % 984,8 hPa 0,0 l/m 0,0 km/h N 8,3 C 11,4 C 0,0 km/h
21.05.2014 05:00 11,3 C 81 % 984,5 hPa 0,0 l/m 0,0 km/h SO 8,2 C 11,3 C 0,0 km/h
21.05.2014 06:00 12,4 C 80 % 984,4 hPa 0,0 l/m 7,1 km/h O-SO 9,0 C 11,9 C 4,0 km/h
21.05.2014 07:00 14,4 C 77 % 984,7 hPa 0,0 l/m 0,0 km/h N 10,4 C 14,4 C 0,0 km/h
21.05.2014 08:00 19,9 C 64 % 984,6 hPa 0,0 l/m 5,2 km/h W-SW 12,9 C 19,9 C 2,9 km/h
21.05.2014 09:00 24,8 C 54 % 984,3 hPa 0,0 l/m 0,0 km/h SW 14,8 C 24,8 C 0,0 km/h
21.05.2014 10:00 29,3 C 45 % 983,6 hPa 0,0 l/m 1,3 km/h NW 16,1 C 29,3 C 0,7 km/h
21.05.2014 11:00 29,3 C 44 % 983,1 hPa 0,0 l/m 0,0 km/h W-SW 15,8 C 29,3 C 0,0 km/h
21.05.2014 12:00 29,3 C 47 % 982,3 hPa 0,0 l/m 16,2 km/h W-NW 16,8 C 28,4 C 9,0 km/h
21.05.2014 13:00 29,8 C 46 % 981,9 hPa 0,0 l/m 16,8 km/h S-SO 16,9 C 29,0 C 9,4 km/h
21.05.2014 14:00 31,6 C 43 % 981,1 hPa 0,0 l/m 0,0 km/h NW 17,5 C 31,6 C 0,0 km/h
21.05.2014 15:00 32,3 C 39 % 980,7 hPa 0,0 l/m 7,8 km/h NW 16,5 C 32,3 C 4,3 km/h
21.05.2014 16:00 31,4 C 39 % 980,3 hPa 0,0 l/m 4,5 km/h W 15,7 C 31,4 C 2,5 km/h
21.05.2014 17:00 31,9 C 44 % 979,2 hPa 0,0 l/m 0,0 km/h NW 18,1 C 31,9 C 0,0 km/h
21.05.2014 18:00 32,6 C 41 % 978,7 hPa 0,0 l/m 0,0 km/h W 17,6 C 32,6 C 0,0 km/h
21.05.2014 19:00 29,2 C 51 % 977,9 hPa 0,0 l/m 0,0 km/h SO 18,0 C 29,2 C 0,0 km/h
21.05.2014 20:00 23,6 C 53 % 977,9 hPa 0,0 l/m 0,0 km/h O-NO 13,4 C 23,6 C 0,0 km/h
21.05.2014 21:00 21,2 C 59 % 977,5 hPa 0,0 l/m 0,0 km/h W-NW 12,9 C 21,2 C 0,0 km/h
21.05.2014 22:00 19,3 C 62 % 977,5 hPa 0,0 l/m 0,0 km/h SO 11,8 C 19,3 C 0,0 km/h
21.05.2014 23:00 20,4 C 55 % 977,2 hPa 0,0 l/m 1,1 km/h SO 11,1 C 20,4 C 1,1 km/h
22.05.2014 00:00 21,6 C 49 % 977,1 hPa 0,0 l/m 0,0 km/h N-NO 10,4 C 21,6 C 0,0 km/h
22.05.2014 01:00 17,3 C 62 % 977,6 hPa 0,0 l/m 0,0 km/h NO 9,9 C 17,3 C 0,0 km/h
22.05.2014 02:00 14,6 C 71 % 978,8 hPa 0,0 l/m 0,0 km/h N-NO 9,4 C 14,6 C 0,0 km/h
22.05.2014 03:00 16,5 C 71 % 979,9 hPa 0,0 l/m 0,7 km/h N-NO 11,2 C 16,5 C 0,7 km/h
22.05.2014 04:00 16,1 C 71 % 981,1 hPa 0,0 l/m 0,0 km/h O-NO 10,8 C 16,1 C 0,0 km/h
22.05.2014 05:00 12,6 C 76 % 981,0 hPa 0,0 l/m 0,0 km/h O-SO 8,5 C 12,6 C 0,0 km/h
22.05.2014 06:00 11,3 C 80 % 981,2 hPa 0,0 l/m 0,0 km/h SW 8,0 C 11,3 C 0,0 km/h
22.05.2014 07:00 14,8 C 83 % 981,5 hPa 0,0 l/m 0,0 km/h SW 11,9 C 14,8 C 0,0 km/h
22.05.2014 08:00 22,7 C 59 % 981,2 hPa 0,0 l/m 0,0 km/h W-NW 14,3 C 22,7 C 0,0 km/h
22.05.2014 09:00 25,8 C 50 % 980,6 hPa 0,0 l/m 0,0 km/h W-NW 14,6 C 25,8 C 0,0 km/h
22.05.2014 10:00 23,7 C 54 % 980,9 hPa 0,0 l/m 5,2 km/h SO 13,8 C 23,7 C 2,9 km/h
22.05.2014 11:00 27,8 C 47 % 980,2 hPa 0,0 l/m 1,3 km/h W-NW 15,4 C 27,8 C 0,7 km/h
22.05.2014 12:00 27,1 C 49 % 979,6 hPa 0,0 l/m 10,4 km/h W 15,4 C 26,4 C 5,8 km/h
22.05.2014 13:00 27,4 C 48 % 979,7 hPa 0,0 l/m 0,0 km/h W 15,4 C 27,4 C 0,0 km/h
22.05.2014 14:00 28,6 C 45 % 979,3 hPa 0,0 l/m 0,0 km/h W-NW 15,5 C 28,6 C 0,0 km/h
22.05.2014 15:00 29,3 C 39 % 979,2 hPa 0,0 l/m 11,0 km/h NW 13,9 C 28,8 C 6,1 km/h
22.05.2014 16:00 25,8 C 44 % 979,8 hPa 0,0 l/m 0,0 km/h N-NW 12,6 C 25,8 C 0,0 km/h
22.05.2014 17:00 21,6 C 61 % 982,2 hPa 0,0 l/m 3,9 km/h W 13,7 C 21,6 C 2,2 km/h
22.05.2014 18:00 17,9 C 68 % 982,4 hPa 0,0 l/m 0,0 km/h W 11,9 C 17,9 C 0,0 km/h
22.05.2014 19:00 17,6 C 62 % 982,5 hPa 0,0 l/m 19,4 km/h S-SW 10,2 C 13,2 C 10,8 km/h
22.05.2014 20:00 16,8 C 63 % 982,7 hPa 0,0 l/m 21,4 km/h W-SW 9,7 C 11,8 C 11,9 km/h
22.05.2014 21:00 16,1 C 66 % 983,5 hPa 0,0 l/m 3,6 km/h SW 9,7 C 16,1 C 3,6 km/h
22.05.2014 22:00 15,9 C 67 % 983,3 hPa 0,0 l/m 0,0 km/h W-SW 9,8 C 15,9 C 0,0 km/h
22.05.2014 23:00 14,9 C 72 % 983,2 hPa 0,0 l/m 0,0 km/h S-SW 9,9 C 14,9 C 0,0 km/h
23.05.2014 00:00 14,3 C 74 % 982,6 hPa 0,0 l/m 0,0 km/h S 9,7 C 14,3 C 0,0 km/h
23.05.2014 01:00 14,2 C 73 % 982,5 hPa 0,0 l/m 0,0 km/h S-SW 9,4 C 14,2 C 0,0 km/h
23.05.2014 02:00 13,2 C 79 % 982,5 hPa 0,0 l/m 0,0 km/h S-SO 9,6 C 13,2 C 0,0 km/h
23.05.2014 03:00 12,4 C 83 % 981,0 hPa 0,2 l/m 0,0 km/h S-SO 9,6 C 12,4 C 0,0 km/h
23.05.2014 04:00 12,3 C 84 % 981,8 hPa 0,3 l/m 0,0 km/h W-NW 9,7 C 12,3 C 0,0 km/h
23.05.2014 05:00 12,1 C 85 % 981,2 hPa 0,6 l/m 0,0 km/h W 9,7 C 12,1 C 0,0 km/h
23.05.2014 06:00 12,1 C 84 % 982,3 hPa 0,2 l/m 3,9 km/h W-SW 9,5 C 12,1 C 2,2 km/h
23.05.2014 07:00 11,5 C 83 % 983,2 hPa 0,3 l/m 0,0 km/h W-SW 8,7 C 11,5 C 0,0 km/h
23.05.2014 08:00 11,3 C 84 % 983,9 hPa 0,5 l/m 7,1 km/h SO 8,7 C 10,8 C 4,0 km/h
23.05.2014 09:00 14,4 C 85 % 983,3 hPa 0,0 l/m 0,0 km/h S 11,9 C 14,4 C 0,0 km/h
23.05.2014 10:00 19,3 C 70 % 982,3 hPa 0,0 l/m 0,0 km/h W 13,7 C 19,3 C 0,0 km/h
23.05.2014 11:00 23,9 C 53 % 982,8 hPa 0,0 l/m 13,0 km/h W-SW 13,7 C 22,3 C 7,2 km/h
23.05.2014 12:00 22,2 C 58 % 982,8 hPa 0,0 l/m 18,1 km/h S-SW 13,5 C 19,4 C 10,1 km/h
23.05.2014 13:00 22,4 C 58 % 982,5 hPa 0,0 l/m 2,6 km/h NW 13,7 C 22,4 C 1,4 km/h
23.05.2014 14:00 23,3 C 53 % 982,1 hPa 0,0 l/m 0,0 km/h W-SW 13,2 C 23,3 C 0,0 km/h
23.05.2014 15:00 26,9 C 43 % 981,9 hPa 0,0 l/m 0,0 km/h NW 13,2 C 26,9 C 0,0 km/h
23.05.2014 16:00 30,5 C 33 % 981,3 hPa 0,0 l/m 2,6 km/h NW 12,4 C 30,5 C 1,4 km/h
23.05.2014 17:00 31,8 C 31 % 981,0 hPa 0,0 l/m 0,0 km/h W-SW 12,6 C 31,8 C 0,0 km/h
23.05.2014 18:00 31,3 C 32 % 980,4 hPa 0,0 l/m 3,2 km/h NW 12,6 C 31,3 C 1,8 km/h
23.05.2014 19:00 29,9 C 30 % 980,1 hPa 0,0 l/m 0,0 km/h NW 10,4 C 29,9 C 0,0 km/h
23.05.2014 20:00 20,1 C 52 % 980,0 hPa 0,0 l/m 0,0 km/h O 9,9 C 20,1 C 0,0 km/h
23.05.2014 21:00 16,5 C 65 % 979,9 hPa 0,0 l/m 0,0 km/h O-SO 9,9 C 16,5 C 0,0 km/h
23.05.2014 22:00 13,7 C 73 % 980,6 hPa 0,0 l/m 0,0 km/h O-NO 8,9 C 13,7 C 0,0 km/h
23.05.2014 23:00 12,3 C 76 % 981,0 hPa 0,0 l/m 0,0 km/h S 8,2 C 12,3 C 0,0 km/h
24.05.2014 00:00 12,0 C 81 % 981,6 hPa 0,0 l/m 0,0 km/h S 8,8 C 12,0 C 0,0 km/h
24.05.2014 01:00 14,1 C 81 % 982,9 hPa 0,0 l/m 0,0 km/h SO 10,9 C 14,1 C 0,0 km/h
24.05.2014 02:00 13,3 C 83 % 983,7 hPa 0,6 l/m 0,0 km/h SO 10,5 C 13,3 C 0,0 km/h
24.05.2014 03:00 12,8 C 84 % 983,7 hPa 0,0 l/m 0,0 km/h W 10,2 C 12,8 C 0,0 km/h
24.05.2014 04:00 12,3 C 84 % 984,2 hPa 0,0 l/m 0,0 km/h S-SO 9,7 C 12,3 C 0,0 km/h
24.05.2014 05:00 12,2 C 84 % 985,1 hPa 0,0 l/m 0,0 km/h W-SW 9,6 C 12,2 C 0,0 km/h
24.05.2014 06:00 11,4 C 85 % 985,8 hPa 0,2 l/m 5,2 km/h W-NW 9,0 C 11,4 C 2,9 km/h
24.05.2014 07:00 10,6 C 84 % 986,7 hPa 0,0 l/m 23,3 km/h S 8,0 C 3,1 C 13,0 km/h
24.05.2014 08:00 10,1 C 83 % 987,4 hPa 0,2 l/m 0,0 km/h SO 7,3 C 10,1 C 0,0 km/h
24.05.2014 09:00 15,4 C 76 % 988,0 hPa 0,0 l/m 0,6 km/h S-SW 11,2 C 15,4 C 0,4 km/h
24.05.2014 10:00 17,6 C 60 % 988,2 hPa 0,0 l/m 0,0 km/h W-NW 9,7 C 17,6 C 0,0 km/h
24.05.2014 11:00 15,4 C 62 % 988,8 hPa 0,0 l/m 14,3 km/h SW 8,2 C 11,9 C 7,9 km/h
24.05.2014 12:00 17,9 C 60 % 989,1 hPa 0,0 l/m 13,6 km/h SW 10,0 C 15,1 C 7,6 km/h
24.05.2014 13:00 20,3 C 55 % 988,5 hPa 0,0 l/m 1,9 km/h W-SW 11,0 C 20,3 C 1,1 km/h
24.05.2014 14:00 20,5 C 50 % 988,3 hPa 0,0 l/m 11,0 km/h W 9,7 C 18,9 C 6,1 km/h
24.05.2014 15:00 24,5 C 43 % 988,1 hPa 0,0 l/m 7,1 km/h N-NO 11,1 C 24,3 C 4,0 km/h
24.05.2014 16:00 27,3 C 36 % 987,8 hPa 0,0 l/m 0,0 km/h W 10,9 C 27,3 C 0,0 km/h
24.05.2014 17:00 30,5 C 31 % 987,3 hPa 0,0 l/m 11,0 km/h S 11,4 C 30,2 C 6,1 km/h
24.05.2014 18:00 27,8 C 34 % 987,3 hPa 0,0 l/m 2,6 km/h W-SW 10,5 C 27,8 C 1,4 km/h
24.05.2014 19:00 24,9 C 38 % 987,1 hPa 0,0 l/m 12,3 km/h SW 9,6 C 23,6 C 6,8 km/h
24.05.2014 20:00 17,2 C 55 % 987,5 hPa 0,0 l/m 5,2 km/h NO 8,1 C 17,2 C 2,9 km/h
24.05.2014 21:00 13,8 C 67 % 988,3 hPa 0,0 l/m 0,0 km/h SO 7,8 C 13,8 C 0,0 km/h
24.05.2014 22:00 11,3 C 75 % 989,6 hPa 0,0 l/m 0,0 km/h SO 7,0 C 11,3 C 0,0 km/h
24.05.2014 23:00 11,3 C 79 % 989,9 hPa 0,0 l/m 0,0 km/h SO 7,8 C 11,3 C 0,0 km/h
25.05.2014 00:00 10,1 C 82 % 989,8 hPa 0,0 l/m 0,0 km/h SO 7,2 C 10,1 C 0,0 km/h
25.05.2014 01:00 11,1 C 83 % 990,1 hPa 0,0 l/m 0,0 km/h O-NO 8,3 C 11,1 C 0,0 km/h
25.05.2014 02:00 11,3 C 82 % 989,9 hPa 0,0 l/m 0,0 km/h SO 8,3 C 11,3 C 0,0 km/h
25.05.2014 03:00 11,4 C 82 % 989,8 hPa 0,0 l/m 0,0 km/h SO 8,4 C 11,4 C 0,0 km/h
25.05.2014 04:00 11,1 C 81 % 989,9 hPa 0,0 l/m 0,0 km/h O-SO 8,0 C 11,1 C 0,0 km/h
25.05.2014 05:00 9,3 C 83 % 990,1 hPa 0,0 l/m 0,0 km/h O-NO 6,6 C 9,3 C 0,0 km/h
25.05.2014 06:00 8,6 C 84 % 990,4 hPa 0,0 l/m 0,0 km/h SO 6,1 C 8,6 C 0,0 km/h
25.05.2014 07:00 13,2 C 85 % 990,2 hPa 0,0 l/m 0,0 km/h W 10,7 C 13,2 C 0,0 km/h
25.05.2014 08:00 19,9 C 63 % 990,1 hPa 0,0 l/m 0,0 km/h NW 12,6 C 19,9 C 0,0 km/h
25.05.2014 09:00 23,0 C 53 % 989,9 hPa 0,0 l/m 0,0 km/h W 12,9 C 23,0 C 0,0 km/h
25.05.2014 10:00 24,5 C 55 % 989,3 hPa 0,0 l/m 0,0 km/h W-NW 14,9 C 24,5 C 0,0 km/h
25.05.2014 11:00 26,4 C 47 % 988,7 hPa 0,0 l/m 0,0 km/h SO 14,2 C 26,4 C 0,0 km/h
25.05.2014 12:00 25,1 C 48 % 988,0 hPa 0,0 l/m 0,0 km/h N-NO 13,3 C 25,1 C 0,0 km/h
25.05.2014 13:00 25,9 C 45 % 987,3 hPa 0,0 l/m 11,0 km/h N-NO 13,0 C 25,0 C 6,1 km/h
25.05.2014 14:00 25,9 C 44 % 986,8 hPa 0,0 l/m 0,0 km/h N-NO 12,7 C 25,9 C 0,0 km/h
25.05.2014 15:00 28,3 C 38 % 986,5 hPa 0,0 l/m 0,0 km/h O-SO 12,6 C 28,3 C 0,0 km/h
25.05.2014 16:00 31,2 C 34 % 985,8 hPa 0,0 l/m 0,0 km/h O-NO 13,4 C 31,2 C 0,0 km/h
25.05.2014 17:00 27,6 C 39 % 985,7 hPa 0,0 l/m 0,0 km/h O-NO 12,4 C 27,6 C 0,0 km/h
25.05.2014 18:00 23,8 C 47 % 985,6 hPa 0,0 l/m 0,0 km/h NO 11,8 C 23,8 C 0,0 km/h
25.05.2014 19:00 21,7 C 51 % 985,4 hPa 0,0 l/m 1,3 km/h NO 11,1 C 21,7 C 0,7 km/h
25.05.2014 20:00 20,5 C 50 % 985,5 hPa 0,0 l/m 2,6 km/h O-SO 9,7 C 20,5 C 1,4 km/h
25.05.2014 21:00 17,1 C 58 % 985,7 hPa 0,0 l/m 0,0 km/h NO 8,8 C 17,1 C 0,0 km/h
25.05.2014 22:00 15,2 C 65 % 986,3 hPa 0,0 l/m 0,0 km/h O-SO 8,7 C 15,2 C 0,0 km/h
25.05.2014 23:00 13,1 C 75 % 986,3 hPa 0,0 l/m 0,0 km/h O 8,8 C 13,1 C 0,0 km/h
Min-Datum _ 19.05.14 19.05.14 22.05.14 - 19.05.14 - 25.05.14 24.05.14 19.05.14
_ Min-Zeit 04:19 16:19 00:19 - 00:19 - 06:19 07:19 00:19
Minimum _ 8,6 C 26 % 977,1 hPa - 0,0 km/h - 6,1 C 3,1 C 0,0 km/h
Max-Datum _ 19.05.14 19.05.14 25.05.14 23.05.14 24.05.14 - 21.05.14 19.05.14 24.05.14
_ Max-Zeit 16:19 04:19 06:19 05:19 07:19 - 17:19 16:19 07:19
Maximum _ 34,7 C 85 % 990,4 hPa 0,6 l/m 23,3 km/h
S
- 18,1 C 34,7 C 13,0 km/h
S
Durchschnitt _ 19,7 C 61 % 983,0 hPa #3,0 l/m 2,2 km/h SO 11,1 C 19,5 C 1,2 km/h
www.sexauwetter.de